sensor_id;sensor_type;location;lat;lon;timestamp;pressure;altitude;pressure_sealevel;temperature;humidity
73024;BME280;61199;47.526;8.538;2022-08-03T00:01:49;96501.66;;;26.37;48.45
73024;BME280;61199;47.526;8.538;2022-08-03T00:04:16;96488.16;;;26.43;48.29
73024;BME280;61199;47.526;8.538;2022-08-03T00:06:42;96499.72;;;26.44;48.45
73024;BME280;61199;47.526;8.538;2022-08-03T00:09:09;96502.97;;;26.34;48.81
73024;BME280;61199;47.526;8.538;2022-08-03T00:11:36;96494.81;;;26.41;48.37
73024;BME280;61199;47.526;8.538;2022-08-03T00:14:04;96498.84;;;26.20;49.19
73024;BME280;61199;47.526;8.538;2022-08-03T00:16:31;96501.75;;;26.19;49.20
73024;BME280;61199;47.526;8.538;2022-08-03T00:18:57;96492.66;;;26.20;49.21
73024;BME280;61199;47.526;8.538;2022-08-03T00:21:26;96498.78;;;26.09;49.52
73024;BME280;61199;47.526;8.538;2022-08-03T00:23:52;96485.38;;;26.09;49.24
73024;BME280;61199;47.526;8.538;2022-08-03T00:26:19;96493.56;;;26.14;49.17
73024;BME280;61199;47.526;8.538;2022-08-03T00:28:47;96483.56;;;26.21;48.69
73024;BME280;61199;47.526;8.538;2022-08-03T00:31:13;96489.84;;;26.15;48.85
73024;BME280;61199;47.526;8.538;2022-08-03T00:33:40;96487.72;;;26.17;48.88
73024;BME280;61199;47.526;8.538;2022-08-03T00:36:25;96483.03;;;26.12;48.68
73024;BME280;61199;47.526;8.538;2022-08-03T00:38:51;96485.16;;;26.10;49.07
73024;BME280;61199;47.526;8.538;2022-08-03T00:41:17;96481.19;;;26.13;48.76
73024;BME280;61199;47.526;8.538;2022-08-03T00:43:44;96482.69;;;26.09;48.93
73024;BME280;61199;47.526;8.538;2022-08-03T00:46:12;96481.25;;;25.95;49.67
73024;BME280;61199;47.526;8.538;2022-08-03T00:48:46;96474.34;;;25.99;49.44
73024;BME280;61199;47.526;8.538;2022-08-03T00:51:12;96482.16;;;25.89;49.70
73024;BME280;61199;47.526;8.538;2022-08-03T00:53:39;96476.56;;;25.90;49.80
73024;BME280;61199;47.526;8.538;2022-08-03T00:56:05;96481.75;;;25.85;49.62
73024;BME280;61199;47.526;8.538;2022-08-03T00:58:32;96474.25;;;25.76;50.20
73024;BME280;61199;47.526;8.538;2022-08-03T01:00:58;96485.38;;;25.79;50.40
73024;BME280;61199;47.526;8.538;2022-08-03T01:03:25;96476.25;;;25.80;49.78
73024;BME280;61199;47.526;8.538;2022-08-03T01:06:11;96477.84;;;25.70;49.88
73024;BME280;61199;47.526;8.538;2022-08-03T01:08:49;96485.69;;;25.71;50.12
73024;BME280;61199;47.526;8.538;2022-08-03T01:11:31;96481.28;;;25.59;50.02
73024;BME280;61199;47.526;8.538;2022-08-03T01:14:45;96481.41;;;25.64;50.03
73024;BME280;61199;47.526;8.538;2022-08-03T01:17:22;96478.16;;;25.62;50.39
73024;BME280;61199;47.526;8.538;2022-08-03T01:20:01;96484.50;;;25.49;50.31
73024;BME280;61199;47.526;8.538;2022-08-03T01:22:39;96483.38;;;25.57;50.33
73024;BME280;61199;47.526;8.538;2022-08-03T01:25:24;96486.13;;;25.50;50.29
73024;BME280;61199;47.526;8.538;2022-08-03T01:30:44;96489.16;;;25.42;50.87
73024;BME280;61199;47.526;8.538;2022-08-03T01:33:16;96482.94;;;25.42;50.51
73024;BME280;61199;47.526;8.538;2022-08-03T01:35:48;96491.00;;;25.42;50.85
73024;BME280;61199;47.526;8.538;2022-08-03T01:38:22;96477.22;;;25.38;50.74
73024;BME280;61199;47.526;8.538;2022-08-03T01:40:51;96488.91;;;25.44;50.95
73024;BME280;61199;47.526;8.538;2022-08-03T01:43:23;96483.69;;;25.49;50.59
73024;BME280;61199;47.526;8.538;2022-08-03T01:46:13;96485.78;;;25.47;50.51
73024;BME280;61199;47.526;8.538;2022-08-03T01:48:42;96480.25;;;25.42;50.67
73024;BME280;61199;47.526;8.538;2022-08-03T01:51:10;96487.44;;;25.30;50.88
73024;BME280;61199;47.526;8.538;2022-08-03T01:53:39;96479.88;;;25.20;51.43
73024;BME280;61199;47.526;8.538;2022-08-03T01:56:09;96483.09;;;25.11;51.12
73024;BME280;61199;47.526;8.538;2022-08-03T01:58:36;96483.00;;;24.99;51.72
73024;BME280;61199;47.526;8.538;2022-08-03T02:01:05;96474.19;;;24.92;52.25
73024;BME280;61199;47.526;8.538;2022-08-03T02:03:37;96476.06;;;24.92;52.05
73024;BME280;61199;47.526;8.538;2022-08-03T02:06:24;96476.19;;;24.79;52.79
73024;BME280;61199;47.526;8.538;2022-08-03T02:09:12;96480.78;;;24.72;53.03
73024;BME280;61199;47.526;8.538;2022-08-03T02:11:40;96469.19;;;24.78;52.32
73024;BME280;61199;47.526;8.538;2022-08-03T02:14:08;96472.84;;;24.83;52.43
73024;BME280;61199;47.526;8.538;2022-08-03T02:16:35;96475.00;;;24.75;52.98
73024;BME280;61199;47.526;8.538;2022-08-03T02:19:04;96476.75;;;24.63;52.89
73024;BME280;61199;47.526;8.538;2022-08-03T02:21:32;96479.97;;;24.47;53.20
73024;BME280;61199;47.526;8.538;2022-08-03T02:24:20;96470.38;;;24.33;53.73
73024;BME280;61199;47.526;8.538;2022-08-03T02:26:48;96476.41;;;24.29;53.89
73024;BME280;61199;47.526;8.538;2022-08-03T02:29:19;96473.28;;;24.32;53.95
73024;BME280;61199;47.526;8.538;2022-08-03T02:32:08;96478.34;;;24.15;54.18
73024;BME280;61199;47.526;8.538;2022-08-03T02:34:35;96468.22;;;24.17;54.67
73024;BME280;61199;47.526;8.538;2022-08-03T02:37:03;96465.13;;;24.20;54.40
73024;BME280;61199;47.526;8.538;2022-08-03T02:39:31;96465.09;;;24.27;54.00
73024;BME280;61199;47.526;8.538;2022-08-03T02:42:00;96472.66;;;24.30;53.92
73024;BME280;61199;47.526;8.538;2022-08-03T02:44:32;96467.75;;;24.27;54.24
73024;BME280;61199;47.526;8.538;2022-08-03T02:47:07;96470.22;;;24.28;53.64
73024;BME280;61199;47.526;8.538;2022-08-03T02:49:35;96468.53;;;24.03;54.86
73024;BME280;61199;47.526;8.538;2022-08-03T02:52:16;96464.41;;;24.07;54.28
73024;BME280;61199;47.526;8.538;2022-08-03T02:54:45;96476.81;;;24.01;54.54
73024;BME280;61199;47.526;8.538;2022-08-03T02:57:14;96469.16;;;24.05;54.27
73024;BME280;61199;47.526;8.538;2022-08-03T02:59:42;96468.72;;;24.08;54.44
73024;BME280;61199;47.526;8.538;2022-08-03T03:02:09;96456.59;;;24.05;54.70
73024;BME280;61199;47.526;8.538;2022-08-03T03:04:37;96460.47;;;24.09;54.11
73024;BME280;61199;47.526;8.538;2022-08-03T03:07:21;96464.22;;;24.02;54.29
73024;BME280;61199;47.526;8.538;2022-08-03T03:09:48;96469.25;;;23.92;54.53
73024;BME280;61199;47.526;8.538;2022-08-03T03:12:16;96466.13;;;23.95;54.82
73024;BME280;61199;47.526;8.538;2022-08-03T03:14:43;96463.28;;;23.90;55.25
73024;BME280;61199;47.526;8.538;2022-08-03T03:17:10;96471.34;;;23.83;54.99
73024;BME280;61199;47.526;8.538;2022-08-03T03:19:38;96464.56;;;23.81;55.63
73024;BME280;61199;47.526;8.538;2022-08-03T03:22:07;96467.00;;;23.89;55.01
73024;BME280;61199;47.526;8.538;2022-08-03T03:24:35;96471.13;;;23.85;55.30
73024;BME280;61199;47.526;8.538;2022-08-03T03:27:02;96475.25;;;23.87;54.98
73024;BME280;61199;47.526;8.538;2022-08-03T03:29:29;96472.31;;;23.95;54.75
73024;BME280;61199;47.526;8.538;2022-08-03T03:32:05;96471.16;;;23.78;55.51
73024;BME280;61199;47.526;8.538;2022-08-03T03:34:35;96482.31;;;23.69;55.65
73024;BME280;61199;47.526;8.538;2022-08-03T03:37:02;96478.22;;;23.66;55.37
73024;BME280;61199;47.526;8.538;2022-08-03T03:39:28;96481.84;;;23.78;55.16
73024;BME280;61199;47.526;8.538;2022-08-03T03:41:55;96483.63;;;23.60;55.91
73024;BME280;61199;47.526;8.538;2022-08-03T03:44:27;96477.34;;;23.72;55.60
73024;BME280;61199;47.526;8.538;2022-08-03T03:46:55;96480.59;;;23.81;55.72
73024;BME280;61199;47.526;8.538;2022-08-03T03:49:22;96481.13;;;23.58;56.29
73024;BME280;61199;47.526;8.538;2022-08-03T03:51:52;96492.19;;;23.68;55.43
73024;BME280;61199;47.526;8.538;2022-08-03T03:54:19;96492.13;;;23.81;55.52
73024;BME280;61199;47.526;8.538;2022-08-03T03:56:46;96491.34;;;23.74;55.22
73024;BME280;61199;47.526;8.538;2022-08-03T03:59:12;96490.91;;;23.77;55.68
73024;BME280;61199;47.526;8.538;2022-08-03T04:01:39;96483.38;;;23.61;55.72
73024;BME280;61199;47.526;8.538;2022-08-03T04:04:05;96479.50;;;23.57;55.72
73024;BME280;61199;47.526;8.538;2022-08-03T04:06:50;96493.69;;;23.64;55.50
73024;BME280;61199;47.526;8.538;2022-08-03T04:09:37;96492.00;;;23.70;55.26
73024;BME280;61199;47.526;8.538;2022-08-03T04:12:34;96485.66;;;23.64;55.29
73024;BME280;61199;47.526;8.538;2022-08-03T04:15:02;96485.28;;;23.48;55.88
73024;BME280;61199;47.526;8.538;2022-08-03T04:17:30;96487.78;;;23.49;55.86
73024;BME280;61199;47.526;8.538;2022-08-03T04:19:59;96495.34;;;23.52;55.98
73024;BME280;61199;47.526;8.538;2022-08-03T04:22:28;96500.88;;;23.64;55.28
73024;BME280;61199;47.526;8.538;2022-08-03T04:25:00;96496.00;;;23.48;56.18
73024;BME280;61199;47.526;8.538;2022-08-03T04:27:32;96491.91;;;23.39;55.88
73024;BME280;61199;47.526;8.538;2022-08-03T04:30:03;96494.03;;;23.30;56.56
73024;BME280;61199;47.526;8.538;2022-08-03T04:32:30;96492.31;;;23.42;56.18
73024;BME280;61199;47.526;8.538;2022-08-03T04:34:57;96501.97;;;23.43;55.81
73024;BME280;61199;47.526;8.538;2022-08-03T04:37:32;96490.25;;;23.44;56.20
73024;BME280;61199;47.526;8.538;2022-08-03T04:40:02;96499.75;;;23.40;56.02
73024;BME280;61199;47.526;8.538;2022-08-03T04:42:32;96497.22;;;23.45;55.66
73024;BME280;61199;47.526;8.538;2022-08-03T04:44:59;96507.72;;;23.47;55.85
73024;BME280;61199;47.526;8.538;2022-08-03T04:47:31;96508.97;;;23.44;55.63
73024;BME280;61199;47.526;8.538;2022-08-03T04:50:00;96511.69;;;23.31;56.30
73024;BME280;61199;47.526;8.538;2022-08-03T04:52:26;96508.78;;;23.39;56.45
73024;BME280;61199;47.526;8.538;2022-08-03T04:54:53;96518.88;;;23.37;56.45
73024;BME280;61199;47.526;8.538;2022-08-03T04:57:19;96514.38;;;23.31;56.87
73024;BME280;61199;47.526;8.538;2022-08-03T04:59:52;96520.53;;;23.38;56.06
73024;BME280;61199;47.526;8.538;2022-08-03T05:02:27;96521.97;;;23.34;56.32
73024;BME280;61199;47.526;8.538;2022-08-03T05:04:54;96519.06;;;23.42;56.55
73024;BME280;61199;47.526;8.538;2022-08-03T05:07:20;96514.69;;;23.54;56.28
73024;BME280;61199;47.526;8.538;2022-08-03T05:09:50;96518.78;;;23.57;56.03
73024;BME280;61199;47.526;8.538;2022-08-03T05:12:18;96514.16;;;23.39;57.61
73024;BME280;61199;47.526;8.538;2022-08-03T05:14:44;96518.25;;;23.35;56.90
73024;BME280;61199;47.526;8.538;2022-08-03T05:17:11;96519.50;;;23.39;56.67
73024;BME280;61199;47.526;8.538;2022-08-03T05:19:37;96514.94;;;23.46;56.85
73024;BME280;61199;47.526;8.538;2022-08-03T05:22:03;96518.78;;;23.57;56.29
73024;BME280;61199;47.526;8.538;2022-08-03T05:24:30;96520.44;;;23.58;56.33
73024;BME280;61199;47.526;8.538;2022-08-03T05:26:56;96525.53;;;23.66;56.19
73024;BME280;61199;47.526;8.538;2022-08-03T05:29:22;96521.66;;;23.62;56.42
73024;BME280;61199;47.526;8.538;2022-08-03T05:31:49;96523.09;;;23.64;56.68
73024;BME280;61199;47.526;8.538;2022-08-03T05:34:15;96528.44;;;23.64;56.94
73024;BME280;61199;47.526;8.538;2022-08-03T05:36:41;96519.34;;;23.72;56.51
73024;BME280;61199;47.526;8.538;2022-08-03T05:39:08;96530.84;;;23.72;56.77
73024;BME280;61199;47.526;8.538;2022-08-03T05:41:34;96538.88;;;23.72;56.51
73024;BME280;61199;47.526;8.538;2022-08-03T05:44:02;96532.50;;;23.73;56.46
73024;BME280;61199;47.526;8.538;2022-08-03T05:46:29;96531.84;;;23.78;56.60
73024;BME280;61199;47.526;8.538;2022-08-03T05:48:55;96534.13;;;23.81;55.96
73024;BME280;61199;47.526;8.538;2022-08-03T05:51:22;96528.78;;;23.81;56.20
73024;BME280;61199;47.526;8.538;2022-08-03T05:53:48;96532.06;;;23.83;56.67
73024;BME280;61199;47.526;8.538;2022-08-03T05:56:15;96529.59;;;23.88;56.39
73024;BME280;61199;47.526;8.538;2022-08-03T05:58:46;96535.75;;;23.82;56.30
73024;BME280;61199;47.526;8.538;2022-08-03T06:01:14;96532.50;;;23.80;56.96
73024;BME280;61199;47.526;8.538;2022-08-03T06:03:40;96532.88;;;23.90;56.75
73024;BME280;61199;47.526;8.538;2022-08-03T06:06:07;96534.28;;;23.99;56.78
73024;BME280;61199;47.526;8.538;2022-08-03T06:08:34;96530.06;;;24.16;56.17
73024;BME280;61199;47.526;8.538;2022-08-03T06:11:00;96526.09;;;24.18;56.15
73024;BME280;61199;47.526;8.538;2022-08-03T06:13:26;96524.44;;;24.24;56.29
73024;BME280;61199;47.526;8.538;2022-08-03T06:15:53;96519.84;;;24.31;55.66
73024;BME280;61199;47.526;8.538;2022-08-03T06:18:19;96521.59;;;24.43;55.42
73024;BME280;61199;47.526;8.538;2022-08-03T06:20:46;96519.69;;;24.50;55.10
73024;BME280;61199;47.526;8.538;2022-08-03T06:23:15;96524.63;;;24.53;55.20
73024;BME280;61199;47.526;8.538;2022-08-03T06:25:44;96527.88;;;24.61;54.74
73024;BME280;61199;47.526;8.538;2022-08-03T06:28:11;96522.63;;;24.73;54.55
73024;BME280;61199;47.526;8.538;2022-08-03T06:31:03;96526.97;;;24.74;54.55
73024;BME280;61199;47.526;8.538;2022-08-03T06:33:32;96526.13;;;24.73;55.31
73024;BME280;61199;47.526;8.538;2022-08-03T06:36:18;96524.38;;;24.85;55.13
73024;BME280;61199;47.526;8.538;2022-08-03T06:38:44;96524.69;;;24.95;54.86
73024;BME280;61199;47.526;8.538;2022-08-03T06:41:11;96526.28;;;25.03;54.21
73024;BME280;61199;47.526;8.538;2022-08-03T06:43:37;96526.41;;;25.08;54.60
73024;BME280;61199;47.526;8.538;2022-08-03T06:46:24;96530.91;;;25.14;53.95
73024;BME280;61199;47.526;8.538;2022-08-03T06:48:51;96534.16;;;25.16;54.22
73024;BME280;61199;47.526;8.538;2022-08-03T06:51:18;96537.19;;;25.26;54.08
73024;BME280;61199;47.526;8.538;2022-08-03T06:53:44;96539.44;;;25.29;53.94
73024;BME280;61199;47.526;8.538;2022-08-03T06:56:10;96540.38;;;25.16;54.86
73024;BME280;61199;47.526;8.538;2022-08-03T06:58:37;96539.59;;;25.34;54.45
73024;BME280;61199;47.526;8.538;2022-08-03T07:01:03;96534.97;;;25.41;54.32
73024;BME280;61199;47.526;8.538;2022-08-03T07:03:30;96529.31;;;25.49;54.09
73024;BME280;61199;47.526;8.538;2022-08-03T07:05:56;96539.44;;;25.29;55.00
73024;BME280;61199;47.526;8.538;2022-08-03T07:08:22;96534.97;;;25.41;54.52
73024;BME280;61199;47.526;8.538;2022-08-03T07:10:59;96531.22;;;25.60;54.03
73024;BME280;61199;47.526;8.538;2022-08-03T07:13:26;96538.69;;;25.58;53.88
73024;BME280;61199;47.526;8.538;2022-08-03T07:15:52;96537.50;;;25.54;54.30
73024;BME280;61199;47.526;8.538;2022-08-03T07:18:21;96536.88;;;25.70;53.83
73024;BME280;61199;47.526;8.538;2022-08-03T07:20:55;96530.94;;;25.68;53.71
73024;BME280;61199;47.526;8.538;2022-08-03T07:23:22;96526.81;;;25.83;53.21
73024;BME280;61199;47.526;8.538;2022-08-03T07:25:49;96529.91;;;25.87;53.43
73024;BME280;61199;47.526;8.538;2022-08-03T07:28:15;96531.72;;;25.86;53.49
73024;BME280;61199;47.526;8.538;2022-08-03T07:30:42;96535.81;;;26.07;52.84
73024;BME280;61199;47.526;8.538;2022-08-03T07:33:08;96535.34;;;26.10;52.97
73024;BME280;61199;47.526;8.538;2022-08-03T07:35:35;96534.59;;;26.21;51.98
73024;BME280;61199;47.526;8.538;2022-08-03T07:38:01;96538.81;;;26.28;51.91
73024;BME280;61199;47.526;8.538;2022-08-03T07:40:28;96539.53;;;26.35;51.85
73024;BME280;61199;47.526;8.538;2022-08-03T07:42:57;96537.22;;;26.39;51.97
73024;BME280;61199;47.526;8.538;2022-08-03T07:45:24;96538.75;;;26.46;51.25
73024;BME280;61199;47.526;8.538;2022-08-03T07:47:53;96531.94;;;26.44;51.76
73024;BME280;61199;47.526;8.538;2022-08-03T07:50:21;96535.63;;;26.20;52.49
73024;BME280;61199;47.526;8.538;2022-08-03T07:52:48;96536.34;;;26.27;52.50
73024;BME280;61199;47.526;8.538;2022-08-03T07:55:21;96540.50;;;26.41;51.83
73024;BME280;61199;47.526;8.538;2022-08-03T07:58:11;96532.44;;;26.41;51.62
73024;BME280;61199;47.526;8.538;2022-08-03T08:00:44;96535.75;;;26.54;50.59
73024;BME280;61199;47.526;8.538;2022-08-03T08:03:10;96529.41;;;26.49;51.04
73024;BME280;61199;47.526;8.538;2022-08-03T08:05:38;96534.13;;;26.65;50.08
73024;BME280;61199;47.526;8.538;2022-08-03T08:08:05;96525.72;;;26.73;49.97
73024;BME280;61199;47.526;8.538;2022-08-03T08:10:32;96525.16;;;26.71;50.15
73024;BME280;61199;47.526;8.538;2022-08-03T08:12:58;96525.03;;;26.89;49.69
73024;BME280;61199;47.526;8.538;2022-08-03T08:15:25;96528.88;;;26.70;49.69
73024;BME280;61199;47.526;8.538;2022-08-03T08:17:53;96531.47;;;26.47;50.20
73024;BME280;61199;47.526;8.538;2022-08-03T08:20:26;96520.69;;;26.76;49.81
73024;BME280;61199;47.526;8.538;2022-08-03T08:23:02;96523.41;;;26.99;49.07
73024;BME280;61199;47.526;8.538;2022-08-03T08:25:37;96527.31;;;27.15;48.05
73024;BME280;61199;47.526;8.538;2022-08-03T08:28:03;96531.38;;;27.29;47.54
73024;BME280;61199;47.526;8.538;2022-08-03T08:30:50;96528.78;;;27.11;47.07
73024;BME280;61199;47.526;8.538;2022-08-03T08:33:16;96523.91;;;27.19;46.29
73024;BME280;61199;47.526;8.538;2022-08-03T08:35:50;96528.53;;;27.47;45.35
73024;BME280;61199;47.526;8.538;2022-08-03T08:38:16;96520.78;;;27.62;45.36
73024;BME280;61199;47.526;8.538;2022-08-03T08:40:43;96517.75;;;27.58;45.47
73024;BME280;61199;47.526;8.538;2022-08-03T08:43:09;96520.06;;;27.66;45.92
73024;BME280;61199;47.526;8.538;2022-08-03T08:45:36;96519.09;;;27.83;45.94
73024;BME280;61199;47.526;8.538;2022-08-03T08:48:04;96523.06;;;27.92;45.76
73024;BME280;61199;47.526;8.538;2022-08-03T08:50:35;96516.00;;;27.75;46.47
73024;BME280;61199;47.526;8.538;2022-08-03T08:53:03;96519.06;;;27.95;45.61
73024;BME280;61199;47.526;8.538;2022-08-03T08:55:36;96521.22;;;27.82;45.75
73024;BME280;61199;47.526;8.538;2022-08-03T08:58:23;96517.25;;;27.84;45.83
73024;BME280;61199;47.526;8.538;2022-08-03T09:00:50;96518.34;;;27.99;45.93
73024;BME280;61199;47.526;8.538;2022-08-03T09:03:17;96523.94;;;28.09;45.70
73024;BME280;61199;47.526;8.538;2022-08-03T09:05:55;96517.94;;;28.19;45.69
73024;BME280;61199;47.526;8.538;2022-08-03T09:08:21;96516.56;;;28.05;45.44
73024;BME280;61199;47.526;8.538;2022-08-03T09:10:48;96516.16;;;27.96;45.11
73024;BME280;61199;47.526;8.538;2022-08-03T09:13:14;96511.06;;;28.11;44.41
73024;BME280;61199;47.526;8.538;2022-08-03T09:15:43;96517.47;;;28.10;45.51
73024;BME280;61199;47.526;8.538;2022-08-03T09:18:28;96515.59;;;27.94;46.32
73024;BME280;61199;47.526;8.538;2022-08-03T09:21:32;96511.97;;;27.89;46.35
73024;BME280;61199;47.526;8.538;2022-08-03T09:24:01;96509.41;;;28.10;45.85
73024;BME280;61199;47.526;8.538;2022-08-03T09:26:33;96513.03;;;28.44;44.79
73024;BME280;61199;47.526;8.538;2022-08-03T09:29:08;96507.97;;;28.64;44.13
73024;BME280;61199;47.526;8.538;2022-08-03T09:31:42;96502.19;;;28.72;43.49
73024;BME280;61199;47.526;8.538;2022-08-03T09:34:11;96509.19;;;28.89;43.51
73024;BME280;61199;47.526;8.538;2022-08-03T09:36:46;96506.56;;;28.78;44.30
73024;BME280;61199;47.526;8.538;2022-08-03T09:39:21;96510.34;;;28.93;44.35
73024;BME280;61199;47.526;8.538;2022-08-03T09:44:46;96501.44;;;28.93;44.44
73024;BME280;61199;47.526;8.538;2022-08-03T09:47:16;96504.13;;;29.09;43.91
73024;BME280;61199;47.526;8.538;2022-08-03T09:50:04;96499.78;;;29.08;43.38
73024;BME280;61199;47.526;8.538;2022-08-03T09:52:34;96505.34;;;29.18;42.82
73024;BME280;61199;47.526;8.538;2022-08-03T09:55:16;96497.75;;;29.15;41.97
73024;BME280;61199;47.526;8.538;2022-08-03T09:58:06;96495.06;;;28.99;42.80
73024;BME280;61199;47.526;8.538;2022-08-03T10:01:01;96490.91;;;29.08;43.16
73024;BME280;61199;47.526;8.538;2022-08-03T10:03:33;96489.41;;;29.00;42.24
73024;BME280;61199;47.526;8.538;2022-08-03T10:06:17;96489.91;;;28.97;43.60
73024;BME280;61199;47.526;8.538;2022-08-03T10:11:35;96483.03;;;29.06;43.76
73024;BME280;61199;47.526;8.538;2022-08-03T10:14:08;96483.75;;;29.18;42.81
73024;BME280;61199;47.526;8.538;2022-08-03T10:16:37;96480.84;;;29.03;42.79
73024;BME280;61199;47.526;8.538;2022-08-03T10:19:05;96473.69;;;29.14;41.86
73024;BME280;61199;47.526;8.538;2022-08-03T10:21:37;96477.00;;;28.99;41.36
73024;BME280;61199;47.526;8.538;2022-08-03T10:24:06;96475.44;;;29.03;41.99
73024;BME280;61199;47.526;8.538;2022-08-03T10:26:40;96468.97;;;29.04;41.33
73024;BME280;61199;47.526;8.538;2022-08-03T10:29:20;96470.69;;;28.94;41.30
73024;BME280;61199;47.526;8.538;2022-08-03T10:31:47;96472.38;;;29.16;41.16
73024;BME280;61199;47.526;8.538;2022-08-03T10:34:26;96469.56;;;29.28;41.35
73024;BME280;61199;47.526;8.538;2022-08-03T10:36:56;96466.59;;;29.29;40.60
73024;BME280;61199;47.526;8.538;2022-08-03T10:39:27;96468.69;;;29.60;40.25
73024;BME280;61199;47.526;8.538;2022-08-03T10:41:55;96463.91;;;29.67;39.49
73024;BME280;61199;47.526;8.538;2022-08-03T10:44:31;96457.59;;;29.83;39.83
73024;BME280;61199;47.526;8.538;2022-08-03T10:46:58;96468.25;;;29.95;39.76
73024;BME280;61199;47.526;8.538;2022-08-03T10:49:25;96458.19;;;30.12;39.49
73024;BME280;61199;47.526;8.538;2022-08-03T10:52:01;96463.28;;;30.08;39.75
73024;BME280;61199;47.526;8.538;2022-08-03T10:54:43;96465.16;;;30.08;39.52
73024;BME280;61199;47.526;8.538;2022-08-03T11:00:08;96452.25;;;29.88;37.81
73024;BME280;61199;47.526;8.538;2022-08-03T11:03:01;96453.59;;;30.12;37.72
73024;BME280;61199;47.526;8.538;2022-08-03T11:05:31;96448.44;;;30.37;38.12
73024;BME280;61199;47.526;8.538;2022-08-03T11:08:20;96447.44;;;30.48;35.84
73024;BME280;61199;47.526;8.538;2022-08-03T11:10:48;96442.38;;;30.57;35.25
73024;BME280;61199;47.526;8.538;2022-08-03T11:13:20;96438.41;;;30.64;35.09
73024;BME280;61199;47.526;8.538;2022-08-03T11:15:50;96441.16;;;30.69;34.34
73024;BME280;61199;47.526;8.538;2022-08-03T11:18:18;96439.81;;;30.40;36.64
73024;BME280;61199;47.526;8.538;2022-08-03T11:20:54;96439.50;;;30.37;37.79
73024;BME280;61199;47.526;8.538;2022-08-03T11:26:27;96426.56;;;30.70;36.37
73024;BME280;61199;47.526;8.538;2022-08-03T11:29:26;96424.63;;;30.66;34.77
73024;BME280;61199;47.526;8.538;2022-08-03T11:31:53;96429.88;;;30.82;34.62
73024;BME280;61199;47.526;8.538;2022-08-03T11:34:20;96425.16;;;31.09;35.26
73024;BME280;61199;47.526;8.538;2022-08-03T11:37:18;96423.28;;;31.10;34.62
73024;BME280;61199;47.526;8.538;2022-08-03T11:39:49;96418.63;;;31.00;35.30
73024;BME280;61199;47.526;8.538;2022-08-03T11:44:56;96418.28;;;31.33;35.55
73024;BME280;61199;47.526;8.538;2022-08-03T11:47:25;96414.53;;;31.49;35.10
73024;BME280;61199;47.526;8.538;2022-08-03T11:49:58;96413.41;;;31.40;33.91
73024;BME280;61199;47.526;8.538;2022-08-03T11:52:34;96412.63;;;31.44;34.40
73024;BME280;61199;47.526;8.538;2022-08-03T11:55:00;96400.81;;;31.65;33.98
73024;BME280;61199;47.526;8.538;2022-08-03T11:57:31;96407.38;;;31.84;34.78
73024;BME280;61199;47.526;8.538;2022-08-03T12:00:31;96397.66;;;31.93;33.34
73024;BME280;61199;47.526;8.538;2022-08-03T12:03:09;96405.53;;;32.05;33.33
73024;BME280;61199;47.526;8.538;2022-08-03T12:08:38;96396.84;;;32.18;31.46
73024;BME280;61199;47.526;8.538;2022-08-03T12:11:06;96391.19;;;32.34;30.84
73024;BME280;61199;47.526;8.538;2022-08-03T12:13:44;96387.13;;;32.42;30.68
73024;BME280;61199;47.526;8.538;2022-08-03T12:16:32;96393.63;;;32.46;30.00
73024;BME280;61199;47.526;8.538;2022-08-03T12:19:03;96387.13;;;32.52;29.34
73024;BME280;61199;47.526;8.538;2022-08-03T12:21:31;96390.66;;;32.57;28.78
73024;BME280;61199;47.526;8.538;2022-08-03T12:24:02;96388.75;;;32.63;29.02
73024;BME280;61199;47.526;8.538;2022-08-03T12:26:41;96388.72;;;32.68;28.71
73024;BME280;61199;47.526;8.538;2022-08-03T12:29:18;96384.97;;;32.44;29.05
73024;BME280;61199;47.526;8.538;2022-08-03T12:31:45;96390.09;;;32.50;29.20
73024;BME280;61199;47.526;8.538;2022-08-03T12:34:11;96384.13;;;32.68;29.08
73024;BME280;61199;47.526;8.538;2022-08-03T12:36:49;96380.84;;;32.81;29.14
73024;BME280;61199;47.526;8.538;2022-08-03T12:39:16;96386.78;;;32.98;29.08
73024;BME280;61199;47.526;8.538;2022-08-03T12:41:52;96389.81;;;32.77;28.28
73024;BME280;61199;47.526;8.538;2022-08-03T12:44:31;96387.13;;;32.72;29.50
73024;BME280;61199;47.526;8.538;2022-08-03T12:46:59;96384.66;;;32.80;29.79
73024;BME280;61199;47.526;8.538;2022-08-03T12:49:26;96379.25;;;32.50;29.23
73024;BME280;61199;47.526;8.538;2022-08-03T12:54:22;96376.72;;;33.04;29.14
73024;BME280;61199;47.526;8.538;2022-08-03T12:59:40;96373.00;;;32.60;28.62
73024;BME280;61199;47.526;8.538;2022-08-03T13:02:20;96384.94;;;32.79;29.23
73024;BME280;61199;47.526;8.538;2022-08-03T13:04:50;96370.75;;;33.02;28.57
73024;BME280;61199;47.526;8.538;2022-08-03T13:07:17;96370.19;;;33.25;28.63
73024;BME280;61199;47.526;8.538;2022-08-03T13:09:50;96366.47;;;32.66;28.50
73024;BME280;61199;47.526;8.538;2022-08-03T13:12:20;96372.47;;;32.53;29.03
73024;BME280;61199;47.526;8.538;2022-08-03T13:14:49;96378.44;;;32.60;28.68
73024;BME280;61199;47.526;8.538;2022-08-03T13:17:16;96363.78;;;32.51;28.81
73024;BME280;61199;47.526;8.538;2022-08-03T13:19:44;96358.59;;;32.69;29.33
73024;BME280;61199;47.526;8.538;2022-08-03T13:22:21;96356.38;;;32.96;28.91
73024;BME280;61199;47.526;8.538;2022-08-03T13:24:50;96362.84;;;33.20;28.72
73024;BME280;61199;47.526;8.538;2022-08-03T13:27:18;96365.31;;;33.07;28.40
73024;BME280;61199;47.526;8.538;2022-08-03T13:30:05;96353.88;;;33.25;29.76
73024;BME280;61199;47.526;8.538;2022-08-03T13:32:32;96347.69;;;33.04;28.67
73024;BME280;61199;47.526;8.538;2022-08-03T13:34:59;96353.34;;;33.13;28.41
73024;BME280;61199;47.526;8.538;2022-08-03T13:37:25;96345.94;;;33.33;28.84
73024;BME280;61199;47.526;8.538;2022-08-03T13:39:52;96346.41;;;33.50;28.80
73024;BME280;61199;47.526;8.538;2022-08-03T13:42:30;96345.06;;;33.53;28.98
73024;BME280;61199;47.526;8.538;2022-08-03T13:44:58;96347.34;;;33.84;28.91
73024;BME280;61199;47.526;8.538;2022-08-03T13:47:25;96341.19;;;34.07;28.54